Terminal Aerodrome Forecast
Issued by NWS

Home | Current Version | Previous Version | Graphics & Text | Print | Product List | Glossary On
Versions: 1 2 3 4 5 6 7 8 9 10 11 12 13
000
FTUS43 KIWX 241100
TAFSBN
TAF
KSBN 241139Z 2412/2512 02011KT 6SM -RA BR SCT015 OVC035
      TEMPO 2412/2413 3SM -RA BR OVC015
     FM241300 03012G19KT 2SM RA BR OVC006
     FM242100 34016G23KT 1 1/2SM -RASN BR OVC004
     FM242300 28015G23KT 3/4SM -SN BR OVC004
     FM250600 26014G23KT 3SM -SN OVC012=

USA.gov is the U.S. government's official web portal to all federal, state and local government web resources and services.